createdAt,value
2022-08-25T00:00:15.657Z,81.09
2022-08-25T00:02:48.484Z,81.46
2022-08-25T00:05:26.439Z,81.59
2022-08-25T00:07:55.557Z,82.29
2022-08-25T00:10:22.980Z,82.54
2022-08-25T00:12:50.338Z,82.42
2022-08-25T00:15:17.729Z,82.49
2022-08-25T00:17:45.474Z,82.23
2022-08-25T00:20:12.908Z,82.07
2022-08-25T00:22:40.679Z,82.27
2022-08-25T00:25:09.741Z,82.03
2022-08-25T00:27:37.419Z,82.36
2022-08-25T00:30:06.365Z,82.56
2022-08-25T00:32:33.786Z,83.76
2022-08-25T00:35:01.307Z,84.56
2022-08-25T00:37:28.742Z,83.21
2022-08-25T00:39:57.240Z,82.02
2022-08-25T00:42:25.649Z,81.75
2022-08-25T00:44:53.834Z,82.25
2022-08-25T00:47:20.890Z,82.52
2022-08-25T00:50:00.921Z,83.46
2022-08-25T00:52:54.002Z,84.36
2022-08-25T00:55:31.367Z,84.60
2022-08-25T00:58:19.207Z,85.26
2022-08-25T01:00:50.337Z,84.78
2022-08-25T01:03:19.804Z,84.55
2022-08-25T01:05:48.114Z,84.68
2022-08-25T01:08:18.420Z,85.01
2022-08-25T01:10:47.212Z,85.71
2022-08-25T01:13:24.541Z,86.40
2022-08-25T01:15:56.001Z,86.99
2022-08-25T01:18:24.337Z,88.31
2022-08-25T01:20:59.762Z,89.12
2022-08-25T01:23:27.530Z,89.48
2022-08-25T01:26:16.382Z,89.67
2022-08-25T01:29:05.497Z,89.65
2022-08-25T01:31:34.384Z,89.26
2022-08-25T01:34:01.608Z,89.61
2022-08-25T01:36:30.125Z,90.61
2022-08-25T01:38:57.763Z,90.51
2022-08-25T01:42:05.405Z,91.09
2022-08-25T01:44:35.908Z,89.82
2022-08-25T01:47:04.772Z,88.41
2022-08-25T01:49:32.567Z,88.92
2022-08-25T01:52:21.361Z,88.77
2022-08-25T01:54:49.154Z,88.46
2022-08-25T01:57:16.586Z,88.96
2022-08-25T01:59:44.855Z,88.54
2022-08-25T02:02:12.293Z,88.22
2022-08-25T02:04:39.621Z,88.74
2022-08-25T02:07:11.575Z,88.48
2022-08-25T02:09:39.302Z,89.66
2022-08-25T02:12:09.188Z,89.97
2022-08-25T02:14:37.216Z,90.46
2022-08-25T02:17:05.764Z,91.46
2022-08-25T02:19:33.014Z,90.90
2022-08-25T02:22:00.998Z,91.46
2022-08-25T02:24:28.484Z,91.61
2022-08-25T02:26:55.604Z,91.73
2022-08-25T02:29:22.792Z,91.44
2022-08-25T02:31:50.214Z,91.52
2022-08-25T02:34:17.545Z,91.09
2022-08-25T02:36:44.618Z,91.08
2022-08-25T02:39:12.513Z,92.26
2022-08-25T02:41:39.697Z,91.61
2022-08-25T02:44:08.332Z,91.33
2022-08-25T02:46:36.902Z,92.37
2022-08-25T02:49:05.331Z,93.36
2022-08-25T02:51:33.597Z,94.10
2022-08-25T02:54:02.634Z,93.72
2022-08-25T02:56:31.577Z,93.14
2022-08-25T02:58:59.969Z,93.74
2022-08-25T03:01:29.184Z,93.75
2022-08-25T03:03:57.396Z,93.17
2022-08-25T03:06:25.093Z,92.73
2022-08-25T03:08:53.625Z,92.79
2022-08-25T03:11:21.593Z,93.31
2022-08-25T03:13:50.951Z,93.36
2022-08-25T03:16:19.030Z,93.58
2022-08-25T03:18:46.790Z,94.22
2022-08-25T03:21:15.763Z,93.48
2022-08-25T03:23:44.575Z,93.59
2022-08-25T03:26:30.573Z,93.09
2022-08-25T03:28:58.185Z,94.27
2022-08-25T03:31:27.671Z,93.86
2022-08-25T03:33:55.904Z,93.49
2022-08-25T03:36:23.857Z,93.69
2022-08-25T03:38:52.255Z,92.54
2022-08-25T03:41:22.738Z,93.41
2022-08-25T03:43:51.113Z,95.09
2022-08-25T03:46:29.858Z,98.35
2022-08-25T03:48:58.041Z,100.00
2022-08-25T03:51:36.062Z,100.00
2022-08-25T03:54:04.949Z,100.00
2022-08-25T03:56:32.017Z,100.00
2022-08-25T03:59:00.582Z,100.00
2022-08-25T04:01:28.390Z,100.00
2022-08-25T04:03:55.886Z,100.00
2022-08-25T04:06:23.527Z,100.00
2022-08-25T04:08:52.618Z,100.00
2022-08-25T04:11:22.853Z,100.00
2022-08-25T04:13:51.925Z,100.00
2022-08-25T04:16:23.110Z,100.00
2022-08-25T04:18:51.621Z,100.00
2022-08-25T04:21:20.326Z,100.00
2022-08-25T04:23:49.033Z,100.00
2022-08-25T04:26:22.886Z,100.00
2022-08-25T04:28:50.645Z,100.00
2022-08-25T04:31:19.438Z,100.00
2022-08-25T04:33:48.052Z,100.00
2022-08-25T04:36:16.686Z,100.00
2022-08-25T04:38:45.256Z,100.00
2022-08-25T04:41:14.901Z,100.00
2022-08-25T04:43:44.000Z,100.00
2022-08-25T04:46:24.459Z,100.00
2022-08-25T04:48:53.911Z,100.00
2022-08-25T04:51:26.072Z,100.00
2022-08-25T04:53:53.576Z,100.00
2022-08-25T04:56:26.190Z,100.00
2022-08-25T04:58:55.393Z,100.00
2022-08-25T05:01:25.531Z,100.00
2022-08-25T05:03:57.220Z,100.00
2022-08-25T05:06:24.512Z,100.00
2022-08-25T05:08:52.065Z,100.00
2022-08-25T05:11:19.656Z,100.00
2022-08-25T05:13:51.233Z,100.00
2022-08-25T05:16:20.692Z,97.54
2022-08-25T05:18:48.103Z,90.42
2022-08-25T05:21:19.576Z,82.23
2022-08-25T05:23:47.573Z,76.98
2022-08-25T05:26:20.776Z,74.58
2022-08-25T05:28:51.279Z,72.29
2022-08-25T05:31:20.012Z,69.87
2022-08-25T05:36:16.237Z,69.24
2022-08-25T05:38:43.557Z,70.28
2022-08-25T05:41:20.710Z,61.05
2022-08-25T05:43:49.804Z,61.72
2022-08-25T05:46:19.921Z,65.40
2022-08-25T05:48:47.835Z,64.74
2022-08-25T05:51:16.058Z,67.20
2022-08-25T05:53:46.280Z,65.21
2022-08-25T05:56:14.581Z,64.14
2022-08-25T05:58:43.088Z,60.86
2022-08-25T06:01:30.521Z,58.07
2022-08-25T06:03:57.567Z,52.10
2022-08-25T06:06:24.875Z,48.51
2022-08-25T06:08:52.316Z,45.43
2022-08-25T06:11:19.623Z,43.80
2022-08-25T06:13:46.633Z,41.76
2022-08-25T06:16:13.726Z,41.61
2022-08-25T06:18:40.786Z,42.70
2022-08-25T06:21:13.393Z,44.57
2022-08-25T06:23:41.553Z,43.92
2022-08-25T06:26:13.179Z,44.64
2022-08-25T06:28:51.646Z,46.04
2022-08-25T06:31:20.465Z,46.38
2022-08-25T06:33:48.010Z,46.04
2022-08-25T06:36:15.689Z,44.31
2022-08-25T06:38:42.853Z,45.23
2022-08-25T06:41:12.840Z,45.35
2022-08-25T06:43:48.091Z,44.64
2022-08-25T06:46:31.707Z,45.12
2022-08-25T06:49:08.125Z,43.82
2022-08-25T06:51:36.179Z,43.41
2022-08-25T06:54:06.288Z,42.45
2022-08-25T06:56:34.250Z,39.71
2022-08-25T06:59:05.434Z,40.24
2022-08-25T07:01:33.257Z,41.12
2022-08-25T07:04:02.945Z,40.33
2022-08-25T07:06:33.081Z,36.78
2022-08-25T07:09:00.363Z,39.04
2022-08-25T07:11:28.271Z,39.19
2022-08-25T07:13:55.293Z,36.98
2022-08-25T07:16:22.466Z,38.33
2022-08-25T07:18:50.755Z,39.60
2022-08-25T07:21:21.814Z,39.72
2022-08-25T07:23:52.388Z,38.74
2022-08-25T07:26:37.317Z,37.96
2022-08-25T07:29:13.336Z,39.02
2022-08-25T07:31:41.366Z,39.27
2022-08-25T07:34:28.340Z,40.59
2022-08-25T07:36:57.458Z,41.10
2022-08-25T07:39:26.789Z,37.36
2022-08-25T07:41:57.294Z,33.30
2022-08-25T07:44:28.089Z,34.67
2022-08-25T07:46:56.032Z,35.43
2022-08-25T07:49:25.352Z,33.97
2022-08-25T07:52:05.203Z,35.44
2022-08-25T07:54:38.081Z,37.71
2022-08-25T07:57:08.405Z,38.00
2022-08-25T07:59:42.735Z,35.50
2022-08-25T08:02:16.020Z,36.21
2022-08-25T08:04:50.594Z,34.49
2022-08-25T08:07:27.670Z,33.05
2022-08-25T08:13:01.638Z,39.70
2022-08-25T08:15:30.189Z,42.24
2022-08-25T08:17:59.312Z,41.43
2022-08-25T08:20:27.288Z,43.13
2022-08-25T08:22:54.606Z,41.33
2022-08-25T08:25:26.656Z,40.20
2022-08-25T08:27:56.224Z,41.90
2022-08-25T08:30:26.333Z,41.61
2022-08-25T08:33:12.048Z,42.06
2022-08-25T08:35:41.229Z,42.42
2022-08-25T08:38:14.943Z,41.73
2022-08-25T08:41:33.892Z,42.28
2022-08-25T08:44:24.941Z,41.74
2022-08-25T08:47:33.422Z,42.86
2022-08-25T08:51:01.097Z,43.39
2022-08-25T08:53:55.305Z,41.20
2022-08-25T08:56:25.905Z,40.80
2022-08-25T08:59:05.137Z,39.74
2022-08-25T09:01:41.639Z,41.35
2022-08-25T09:04:20.063Z,40.27
2022-08-25T09:06:49.900Z,40.40
2022-08-25T09:12:07.085Z,39.20
2022-08-25T09:14:54.013Z,37.76
2022-08-25T09:17:57.912Z,37.89
2022-08-25T09:20:37.068Z,39.94
2022-08-25T09:23:34.867Z,39.94
2022-08-25T09:26:39.024Z,39.08
2022-08-25T09:29:21.727Z,38.83
2022-08-25T09:31:49.325Z,37.19
2022-08-25T09:34:22.830Z,37.65
2022-08-25T09:36:52.932Z,37.90
2022-08-25T09:39:21.178Z,36.67
2022-08-25T09:42:01.543Z,36.23
2022-08-25T09:44:33.380Z,37.32
2022-08-25T09:47:26.051Z,36.27
2022-08-25T09:49:57.345Z,35.85
2022-08-25T09:52:41.125Z,36.67
2022-08-25T09:55:08.386Z,38.38
2022-08-25T09:57:43.143Z,36.06
2022-08-25T10:00:31.177Z,35.72
2022-08-25T10:03:22.704Z,38.39
2022-08-25T10:06:13.675Z,37.55
2022-08-25T10:08:43.454Z,34.74
2022-08-25T10:11:31.325Z,39.19
2022-08-25T10:14:26.255Z,34.98
2022-08-25T10:16:54.494Z,32.89
2022-08-25T10:19:30.782Z,35.84
2022-08-25T10:22:25.851Z,33.47
2022-08-25T10:24:55.525Z,31.94
2022-08-25T10:28:04.308Z,34.65
2022-08-25T10:31:16.202Z,32.18
2022-08-25T10:33:51.261Z,31.58
2022-08-25T10:36:33.154Z,33.81
2022-08-25T10:39:02.187Z,30.11
2022-08-25T10:42:01.038Z,33.63
2022-08-25T10:45:35.680Z,32.81
2022-08-25T10:48:22.322Z,31.50
2022-08-25T10:51:33.146Z,31.30
2022-08-25T10:54:11.989Z,34.31
2022-08-25T10:56:44.625Z,33.60
2022-08-25T11:00:05.819Z,33.41
2022-08-25T11:03:26.817Z,32.78
2022-08-25T11:06:02.014Z,32.83
2022-08-25T11:08:36.064Z,30.90
2022-08-25T11:11:39.372Z,34.10
2022-08-25T11:14:21.409Z,33.61
2022-08-25T11:16:56.009Z,32.40
2022-08-25T11:19:47.223Z,33.28
2022-08-25T11:22:34.188Z,31.44
2022-08-25T11:25:23.990Z,28.23
2022-08-25T11:28:08.200Z,30.91
2022-08-25T11:30:35.251Z,31.00
2022-08-25T11:33:02.383Z,30.95
2022-08-25T11:35:54.791Z,30.76
2022-08-25T11:39:04.705Z,29.75
2022-08-25T11:41:59.060Z,29.88
2022-08-25T11:44:53.135Z,29.08
2022-08-25T11:47:44.630Z,28.99
2022-08-25T11:50:36.497Z,34.03
2022-08-25T11:53:30.241Z,35.92
2022-08-25T11:56:07.003Z,33.50
2022-08-25T11:58:51.853Z,33.24
2022-08-25T12:01:40.490Z,34.12
2022-08-25T12:04:45.007Z,33.78
2022-08-25T12:07:22.130Z,33.63
2022-08-25T12:09:53.744Z,31.44
2022-08-25T12:12:41.821Z,32.33
2022-08-25T12:15:57.238Z,33.42
2022-08-25T12:18:27.351Z,33.01
2022-08-25T12:20:55.059Z,35.65
2022-08-25T12:23:45.207Z,34.82
2022-08-25T12:26:39.139Z,36.68
2022-08-25T12:29:23.394Z,37.48
2022-08-25T12:32:15.399Z,34.73
2022-08-25T12:35:29.844Z,33.01
2022-08-25T12:38:05.926Z,33.48
2022-08-25T12:40:54.470Z,33.69
2022-08-25T12:43:38.081Z,32.17
2022-08-25T12:46:23.243Z,33.86
2022-08-25T12:48:57.452Z,33.44
2022-08-25T12:51:40.377Z,34.84
2022-08-25T12:54:59.651Z,37.07
2022-08-25T12:57:52.323Z,36.36
2022-08-25T13:00:33.433Z,38.15
2022-08-25T13:03:21.717Z,38.15
2022-08-25T13:06:22.425Z,37.66
2022-08-25T13:09:17.114Z,36.94
2022-08-25T13:11:56.561Z,34.27
2022-08-25T13:14:34.865Z,32.97
2022-08-25T13:17:06.403Z,31.46
2022-08-25T13:19:35.000Z,29.42
2022-08-25T13:22:16.784Z,33.33
2022-08-25T13:24:47.430Z,34.86
2022-08-25T13:27:41.377Z,35.29
2022-08-25T13:30:31.353Z,35.32
2022-08-25T13:32:58.842Z,35.23
2022-08-25T13:35:32.925Z,34.24
2022-08-25T13:38:15.429Z,35.67
2022-08-25T13:40:43.217Z,35.39
2022-08-25T13:43:14.359Z,34.31
2022-08-25T13:45:47.642Z,34.40
2022-08-25T13:48:36.101Z,35.84
2022-08-25T13:51:31.346Z,36.11
2022-08-25T13:54:04.579Z,36.54
2022-08-25T13:56:41.571Z,35.89
2022-08-25T13:59:40.261Z,35.12
2022-08-25T14:02:19.655Z,35.13
2022-08-25T14:04:51.534Z,35.59
2022-08-25T14:07:22.779Z,35.65
2022-08-25T14:10:10.275Z,35.53
2022-08-25T14:12:45.474Z,34.90
2022-08-25T14:15:21.854Z,35.99
2022-08-25T14:18:29.492Z,35.63
2022-08-25T14:20:58.215Z,35.03
2022-08-25T14:23:27.645Z,35.97
2022-08-25T14:25:57.806Z,36.64
2022-08-25T14:28:29.286Z,37.24
2022-08-25T14:31:14.387Z,37.85
2022-08-25T14:33:59.109Z,38.24
2022-08-25T14:36:26.780Z,37.76
2022-08-25T14:38:56.879Z,38.03
2022-08-25T14:41:26.566Z,37.73
2022-08-25T14:43:54.264Z,37.90
2022-08-25T14:46:29.353Z,38.27
2022-08-25T14:49:03.367Z,37.32
2022-08-25T14:51:32.597Z,36.75
2022-08-25T14:54:07.321Z,36.88
2022-08-25T14:56:36.120Z,36.74
2022-08-25T14:59:04.875Z,35.58
2022-08-25T15:01:32.027Z,35.87
2022-08-25T15:04:06.219Z,35.64
2022-08-25T15:06:36.236Z,35.98
2022-08-25T15:09:10.919Z,36.28
2022-08-25T15:11:54.692Z,34.66
2022-08-25T15:14:29.143Z,34.83
2022-08-25T15:17:01.605Z,34.96
2022-08-25T15:19:29.551Z,33.52
2022-08-25T15:21:57.853Z,33.99
2022-08-25T15:24:27.176Z,34.07
2022-08-25T15:27:00.826Z,34.32
2022-08-25T15:29:30.878Z,35.14
2022-08-25T15:32:00.282Z,35.50
2022-08-25T15:34:28.897Z,35.03
2022-08-25T15:36:58.371Z,35.55
2022-08-25T15:39:26.665Z,34.78
2022-08-25T15:41:54.106Z,34.73
2022-08-25T15:44:25.050Z,35.26
2022-08-25T15:46:53.489Z,36.06
2022-08-25T15:49:24.184Z,36.45
2022-08-25T15:51:54.431Z,36.42
2022-08-25T15:54:26.745Z,36.83
2022-08-25T15:56:55.297Z,36.88
2022-08-25T15:59:22.629Z,37.29
2022-08-25T16:01:55.548Z,37.32
2022-08-25T16:04:24.973Z,37.07
2022-08-25T16:06:53.019Z,36.40
2022-08-25T16:09:23.001Z,36.57
2022-08-25T16:11:56.678Z,36.78
2022-08-25T16:14:27.667Z,36.68
2022-08-25T16:16:58.568Z,36.79
2022-08-25T16:19:28.833Z,37.07
2022-08-25T16:21:56.177Z,36.35
2022-08-25T16:24:23.229Z,37.32
2022-08-25T16:26:51.815Z,38.17
2022-08-25T16:29:20.114Z,38.58
2022-08-25T16:31:53.190Z,38.99
2022-08-25T16:34:24.777Z,39.21
2022-08-25T16:36:55.955Z,39.55
2022-08-25T16:39:23.874Z,39.66
2022-08-25T16:41:52.444Z,40.16
2022-08-25T16:44:21.417Z,39.95
2022-08-25T16:46:50.130Z,39.90
2022-08-25T16:49:17.988Z,40.29
2022-08-25T16:51:45.164Z,39.00
2022-08-25T16:54:32.959Z,39.06
2022-08-25T16:57:00.676Z,39.32
2022-08-25T16:59:27.791Z,39.81
2022-08-25T17:01:54.922Z,40.31
2022-08-25T17:04:27.630Z,40.77
2022-08-25T17:07:00.315Z,40.54
2022-08-25T17:09:29.767Z,40.41
2022-08-25T17:11:57.252Z,40.52
2022-08-25T17:14:24.830Z,40.59
2022-08-25T17:16:55.034Z,40.56
2022-08-25T17:19:24.864Z,40.51
2022-08-25T17:21:54.804Z,40.66
2022-08-25T17:24:22.385Z,40.75
2022-08-25T17:26:57.072Z,40.27
2022-08-25T17:29:24.874Z,40.29
2022-08-25T17:31:52.214Z,41.04
2022-08-25T17:34:22.992Z,40.67
2022-08-25T17:36:51.318Z,40.70
2022-08-25T17:39:19.829Z,41.28
2022-08-25T17:41:50.568Z,41.44
2022-08-25T17:44:19.456Z,41.66
2022-08-25T17:46:48.044Z,41.85
2022-08-25T17:49:17.091Z,42.04
2022-08-25T17:51:45.189Z,42.45
2022-08-25T17:54:13.157Z,42.67
2022-08-25T17:56:40.880Z,43.12
2022-08-25T17:59:08.839Z,43.23
2022-08-25T18:01:40.804Z,43.49
2022-08-25T18:04:16.924Z,43.49
2022-08-25T18:06:47.554Z,43.89
2022-08-25T18:09:15.965Z,44.26
2022-08-25T18:11:43.287Z,44.74
2022-08-25T18:14:12.143Z,44.83
2022-08-25T18:16:40.801Z,45.35
2022-08-25T18:19:10.797Z,45.48
2022-08-25T18:21:38.798Z,45.65
2022-08-25T18:24:07.334Z,45.67
2022-08-25T18:26:35.758Z,47.20
2022-08-25T18:29:03.862Z,49.38
2022-08-25T18:31:31.637Z,47.95
2022-08-25T18:33:59.801Z,48.10
2022-08-25T18:36:27.291Z,48.66
2022-08-25T18:39:14.147Z,48.77
2022-08-25T18:41:42.745Z,48.60
2022-08-25T18:44:12.628Z,49.26
2022-08-25T18:46:43.474Z,49.95
2022-08-25T18:49:15.579Z,50.95
2022-08-25T18:51:44.868Z,53.21
2022-08-25T18:54:23.297Z,53.13
2022-08-25T18:56:52.805Z,54.13
2022-08-25T18:59:23.780Z,54.75
2022-08-25T19:01:53.745Z,55.10
2022-08-25T19:04:31.278Z,55.28
2022-08-25T19:07:00.491Z,55.39
2022-08-25T19:09:28.259Z,57.17
2022-08-25T19:11:56.025Z,57.68
2022-08-25T19:14:23.723Z,58.09
2022-08-25T19:16:54.635Z,57.48
2022-08-25T19:19:23.437Z,56.89
2022-08-25T19:21:51.588Z,57.80
2022-08-25T19:24:19.365Z,57.71
2022-08-25T19:26:47.321Z,60.48
2022-08-25T19:29:17.780Z,61.95
2022-08-25T19:31:47.622Z,62.91
2022-08-25T19:34:25.292Z,63.83
2022-08-25T19:36:57.712Z,64.93
2022-08-25T19:39:26.038Z,65.42
2022-08-25T19:41:53.726Z,66.14
2022-08-25T19:44:21.336Z,66.72
2022-08-25T19:46:48.824Z,66.26
2022-08-25T19:49:22.460Z,66.81
2022-08-25T19:51:51.895Z,67.09
2022-08-25T19:54:28.854Z,67.14
2022-08-25T19:56:57.734Z,66.61
2022-08-25T19:59:42.258Z,66.78
2022-08-25T20:02:15.507Z,67.31
2022-08-25T20:04:49.513Z,67.37
2022-08-25T20:07:18.962Z,67.48
2022-08-25T20:09:46.475Z,68.05
2022-08-25T20:14:43.322Z,68.65
2022-08-25T20:17:14.575Z,69.24
2022-08-25T20:19:52.277Z,69.81
2022-08-25T20:22:22.535Z,69.20
2022-08-25T20:24:56.090Z,68.98
2022-08-25T20:27:32.966Z,68.35
2022-08-25T20:30:02.653Z,68.32
2022-08-25T20:32:32.322Z,68.94
2022-08-25T20:35:00.548Z,68.97
2022-08-25T20:37:28.037Z,69.66
2022-08-25T20:39:55.708Z,69.45
2022-08-25T20:42:23.190Z,69.37
2022-08-25T20:44:50.679Z,70.55
2022-08-25T20:47:20.999Z,71.69
2022-08-25T20:49:48.872Z,74.10
2022-08-25T20:52:18.556Z,74.01
2022-08-25T20:54:50.339Z,74.30
2022-08-25T20:57:24.485Z,74.46
2022-08-25T20:59:53.904Z,74.43
2022-08-25T21:02:21.974Z,74.02
2022-08-25T21:04:50.477Z,73.46
2022-08-25T21:07:18.775Z,76.35
2022-08-25T21:09:46.666Z,76.65
2022-08-25T21:12:15.221Z,78.32
2022-08-25T21:14:42.556Z,79.51
2022-08-25T21:17:13.680Z,78.74
2022-08-25T21:19:41.832Z,78.97
2022-08-25T21:22:10.663Z,79.07
2022-08-25T21:24:39.069Z,79.25
2022-08-25T21:27:07.143Z,78.69
2022-08-25T21:29:34.793Z,78.83
2022-08-25T21:32:02.827Z,77.99
2022-08-25T21:34:31.448Z,78.10
2022-08-25T21:37:00.079Z,77.66
2022-08-25T21:39:29.716Z,77.67
2022-08-25T21:42:00.604Z,77.40
2022-08-25T21:44:29.828Z,77.61
2022-08-25T21:46:57.678Z,77.13
2022-08-25T21:49:25.650Z,76.89
2022-08-25T21:52:02.407Z,77.53
2022-08-25T21:54:32.073Z,77.60
2022-08-25T21:57:01.942Z,77.46
2022-08-25T21:59:40.253Z,77.81
2022-08-25T22:02:10.002Z,78.83
2022-08-25T22:04:38.852Z,79.24
2022-08-25T22:07:07.058Z,79.75
2022-08-25T22:09:35.501Z,80.65
2022-08-25T22:12:03.961Z,81.34
2022-08-25T22:14:32.383Z,81.39
2022-08-25T22:17:00.169Z,81.83
2022-08-25T22:19:28.023Z,82.21
2022-08-25T22:21:56.334Z,81.65
2022-08-25T22:24:28.464Z,81.79
2022-08-25T22:26:56.387Z,82.24
2022-08-25T22:29:25.744Z,82.72
2022-08-25T22:32:00.634Z,83.45
2022-08-25T22:34:33.155Z,83.47
2022-08-25T22:37:04.936Z,84.20
2022-08-25T22:39:34.186Z,85.65
2022-08-25T22:42:02.907Z,85.60
2022-08-25T22:44:30.375Z,85.11
2022-08-25T22:46:57.819Z,85.45
2022-08-25T22:49:29.048Z,85.41
2022-08-25T22:51:56.398Z,85.17
2022-08-25T22:54:25.595Z,85.84
2022-08-25T22:56:53.585Z,86.42
2022-08-25T22:59:22.206Z,86.66
2022-08-25T23:01:52.581Z,86.37
2022-08-25T23:04:22.258Z,87.55
2022-08-25T23:06:50.351Z,87.42
2022-08-25T23:09:17.998Z,86.96
2022-08-25T23:11:45.654Z,86.91
2022-08-25T23:14:13.313Z,87.14
2022-08-25T23:16:42.198Z,87.11
2022-08-25T23:19:14.335Z,86.86
2022-08-25T23:22:01.875Z,87.00
2022-08-25T23:24:30.836Z,86.86
2022-08-25T23:26:59.273Z,86.06
2022-08-25T23:29:27.711Z,85.25
2022-08-25T23:31:55.962Z,85.82
2022-08-25T23:34:24.474Z,86.00
2022-08-25T23:36:52.114Z,85.36
2022-08-25T23:39:21.684Z,85.39
2022-08-25T23:41:50.101Z,86.45
2022-08-25T23:44:18.571Z,86.73
2022-08-25T23:46:47.589Z,87.32
2022-08-25T23:49:18.352Z,88.00
2022-08-25T23:51:48.638Z,88.21
2022-08-25T23:54:17.772Z,88.54
2022-08-25T23:56:51.585Z,88.36
2022-08-25T23:59:24.200Z,89.52
